sensor_id;sensor_type;location;lat;lon;timestamp;temperature;humidity
10192;DHT22;17580;50.850;4.504;2023-04-24T00:02:09;9.40;76.40
10192;DHT22;17580;50.850;4.504;2023-04-24T00:04:38;9.40;75.20
10192;DHT22;17580;50.850;4.504;2023-04-24T00:07:06;9.40;75.10
10192;DHT22;17580;50.850;4.504;2023-04-24T00:09:33;9.40;75.90
10192;DHT22;17580;50.850;4.504;2023-04-24T00:12:01;9.40;74.90
10192;DHT22;17580;50.850;4.504;2023-04-24T00:14:30;9.30;76.50
10192;DHT22;17580;50.850;4.504;2023-04-24T00:16:56;9.30;76.30
10192;DHT22;17580;50.850;4.504;2023-04-24T00:19:25;9.30;76.30
10192;DHT22;17580;50.850;4.504;2023-04-24T00:21:52;9.30;75.60
10192;DHT22;17580;50.850;4.504;2023-04-24T00:24:19;9.30;76.50
10192;DHT22;17580;50.850;4.504;2023-04-24T00:26:46;9.10;79.40
10192;DHT22;17580;50.850;4.504;2023-04-24T00:29:13;9.10;80.80
10192;DHT22;17580;50.850;4.504;2023-04-24T00:31:40;9.20;81.70
10192;DHT22;17580;50.850;4.504;2023-04-24T00:34:07;9.10;80.50
10192;DHT22;17580;50.850;4.504;2023-04-24T00:36:37;9.10;80.90
10192;DHT22;17580;50.850;4.504;2023-04-24T00:39:04;9.00;80.80
10192;DHT22;17580;50.850;4.504;2023-04-24T00:41:31;9.00;82.00
10192;DHT22;17580;50.850;4.504;2023-04-24T00:43:58;9.00;81.30
10192;DHT22;17580;50.850;4.504;2023-04-24T00:46:25;9.00;82.40
10192;DHT22;17580;50.850;4.504;2023-04-24T00:48:52;9.00;81.90
10192;DHT22;17580;50.850;4.504;2023-04-24T00:51:19;9.00;82.20
10192;DHT22;17580;50.850;4.504;2023-04-24T00:53:48;9.00;81.50
10192;DHT22;17580;50.850;4.504;2023-04-24T00:56:15;9.00;81.70
10192;DHT22;17580;50.850;4.504;2023-04-24T00:58:42;9.00;80.70
10192;DHT22;17580;50.850;4.504;2023-04-24T01:01:09;9.00;80.70
10192;DHT22;17580;50.850;4.504;2023-04-24T01:03:37;9.00;80.50
10192;DHT22;17580;50.850;4.504;2023-04-24T01:06:05;9.00;80.80
10192;DHT22;17580;50.850;4.504;2023-04-24T01:08:32;9.00;80.00
10192;DHT22;17580;50.850;4.504;2023-04-24T01:11:03;9.00;81.10
10192;DHT22;17580;50.850;4.504;2023-04-24T01:13:31;9.00;80.30
10192;DHT22;17580;50.850;4.504;2023-04-24T01:15:58;9.00;81.60
10192;DHT22;17580;50.850;4.504;2023-04-24T01:18:25;9.00;80.00
10192;DHT22;17580;50.850;4.504;2023-04-24T01:20:54;9.00;80.80
10192;DHT22;17580;50.850;4.504;2023-04-24T01:23:25;9.00;81.50
10192;DHT22;17580;50.850;4.504;2023-04-24T01:25:52;9.00;80.70
10192;DHT22;17580;50.850;4.504;2023-04-24T01:28:19;9.00;80.10
10192;DHT22;17580;50.850;4.504;2023-04-24T01:30:46;8.90;80.70
10192;DHT22;17580;50.850;4.504;2023-04-24T01:33:13;8.90;81.60
10192;DHT22;17580;50.850;4.504;2023-04-24T01:35:40;8.90;82.80
10192;DHT22;17580;50.850;4.504;2023-04-24T01:38:07;8.80;83.20
10192;DHT22;17580;50.850;4.504;2023-04-24T01:40:36;8.90;83.80
10192;DHT22;17580;50.850;4.504;2023-04-24T01:43:03;8.70;84.50
10192;DHT22;17580;50.850;4.504;2023-04-24T01:45:30;8.70;82.70
10192;DHT22;17580;50.850;4.504;2023-04-24T01:47:57;8.80;83.80
10192;DHT22;17580;50.850;4.504;2023-04-24T01:50:24;8.70;82.50
10192;DHT22;17580;50.850;4.504;2023-04-24T01:52:51;8.70;82.40
10192;DHT22;17580;50.850;4.504;2023-04-24T01:55:18;8.70;83.50
10192;DHT22;17580;50.850;4.504;2023-04-24T01:57:46;8.70;83.00
10192;DHT22;17580;50.850;4.504;2023-04-24T02:00:13;8.70;83.90
10192;DHT22;17580;50.850;4.504;2023-04-24T02:02:41;8.80;84.40
10192;DHT22;17580;50.850;4.504;2023-04-24T02:05:08;8.90;84.00
10192;DHT22;17580;50.850;4.504;2023-04-24T02:07:36;8.80;84.60
10192;DHT22;17580;50.850;4.504;2023-04-24T02:10:04;8.70;84.40
10192;DHT22;17580;50.850;4.504;2023-04-24T02:12:31;8.70;85.10
10192;DHT22;17580;50.850;4.504;2023-04-24T02:14:59;8.70;85.70
10192;DHT22;17580;50.850;4.504;2023-04-24T02:17:26;8.70;85.40
10192;DHT22;17580;50.850;4.504;2023-04-24T02:19:53;8.70;86.00
10192;DHT22;17580;50.850;4.504;2023-04-24T02:22:20;8.70;86.40
10192;DHT22;17580;50.850;4.504;2023-04-24T02:24:47;8.80;86.80
10192;DHT22;17580;50.850;4.504;2023-04-24T02:27:14;8.80;85.70
10192;DHT22;17580;50.850;4.504;2023-04-24T02:29:41;8.80;85.90
10192;DHT22;17580;50.850;4.504;2023-04-24T02:32:09;8.80;85.40
10192;DHT22;17580;50.850;4.504;2023-04-24T02:34:37;8.70;85.60
10192;DHT22;17580;50.850;4.504;2023-04-24T02:37:04;8.80;85.10
10192;DHT22;17580;50.850;4.504;2023-04-24T02:39:31;8.70;86.10
10192;DHT22;17580;50.850;4.504;2023-04-24T02:41:58;8.60;85.50
10192;DHT22;17580;50.850;4.504;2023-04-24T02:44:25;8.60;86.30
10192;DHT22;17580;50.850;4.504;2023-04-24T02:46:52;8.60;87.50
10192;DHT22;17580;50.850;4.504;2023-04-24T02:49:20;8.50;87.40
10192;DHT22;17580;50.850;4.504;2023-04-24T02:51:47;8.50;88.10
10192;DHT22;17580;50.850;4.504;2023-04-24T02:54:14;8.60;87.40
10192;DHT22;17580;50.850;4.504;2023-04-24T02:56:42;8.60;86.60
10192;DHT22;17580;50.850;4.504;2023-04-24T02:59:09;8.50;88.70
10192;DHT22;17580;50.850;4.504;2023-04-24T03:01:36;8.50;87.80
10192;DHT22;17580;50.850;4.504;2023-04-24T03:04:03;8.60;88.40
10192;DHT22;17580;50.850;4.504;2023-04-24T03:06:32;8.70;88.00
10192;DHT22;17580;50.850;4.504;2023-04-24T03:09:01;8.60;86.50
10192;DHT22;17580;50.850;4.504;2023-04-24T03:11:29;8.60;87.20
10192;DHT22;17580;50.850;4.504;2023-04-24T03:13:55;8.60;86.50
10192;DHT22;17580;50.850;4.504;2023-04-24T03:16:22;8.50;87.10
10192;DHT22;17580;50.850;4.504;2023-04-24T03:18:49;8.60;87.20
10192;DHT22;17580;50.850;4.504;2023-04-24T03:21:16;8.60;87.00
10192;DHT22;17580;50.850;4.504;2023-04-24T03:23:45;8.50;86.90
10192;DHT22;17580;50.850;4.504;2023-04-24T03:26:11;8.50;88.00
10192;DHT22;17580;50.850;4.504;2023-04-24T03:28:38;8.50;89.30
10192;DHT22;17580;50.850;4.504;2023-04-24T03:31:05;8.60;88.90
10192;DHT22;17580;50.850;4.504;2023-04-24T03:33:32;8.50;89.40
10192;DHT22;17580;50.850;4.504;2023-04-24T03:35:59;8.50;90.20
10192;DHT22;17580;50.850;4.504;2023-04-24T03:38:26;8.40;90.90
10192;DHT22;17580;50.850;4.504;2023-04-24T03:40:54;8.50;90.90
10192;DHT22;17580;50.850;4.504;2023-04-24T03:43:21;8.40;90.60
10192;DHT22;17580;50.850;4.504;2023-04-24T03:45:48;8.50;91.60
10192;DHT22;17580;50.850;4.504;2023-04-24T03:48:16;8.50;91.30
10192;DHT22;17580;50.850;4.504;2023-04-24T03:50:43;8.50;91.40
10192;DHT22;17580;50.850;4.504;2023-04-24T03:53:10;8.50;91.60
10192;DHT22;17580;50.850;4.504;2023-04-24T03:55:37;8.50;91.80
10192;DHT22;17580;50.850;4.504;2023-04-24T03:58:05;8.60;91.60
10192;DHT22;17580;50.850;4.504;2023-04-24T04:00:32;8.60;90.90
10192;DHT22;17580;50.850;4.504;2023-04-24T04:03:00;8.60;91.00
10192;DHT22;17580;50.850;4.504;2023-04-24T04:05:27;8.60;91.10
10192;DHT22;17580;50.850;4.504;2023-04-24T04:07:54;8.60;91.20
10192;DHT22;17580;50.850;4.504;2023-04-24T04:10:21;8.70;91.80
10192;DHT22;17580;50.850;4.504;2023-04-24T04:12:48;8.60;91.70
10192;DHT22;17580;50.850;4.504;2023-04-24T04:15:16;8.60;91.60
10192;DHT22;17580;50.850;4.504;2023-04-24T04:17:43;8.70;91.20
10192;DHT22;17580;50.850;4.504;2023-04-24T04:20:11;8.60;91.30
10192;DHT22;17580;50.850;4.504;2023-04-24T04:22:39;8.60;91.20
10192;DHT22;17580;50.850;4.504;2023-04-24T04:25:06;8.70;91.40
10192;DHT22;17580;50.850;4.504;2023-04-24T04:27:34;8.70;91.30
10192;DHT22;17580;50.850;4.504;2023-04-24T04:30:01;8.70;90.80
10192;DHT22;17580;50.850;4.504;2023-04-24T04:32:31;8.80;90.40
10192;DHT22;17580;50.850;4.504;2023-04-24T04:34:59;8.90;91.00
10192;DHT22;17580;50.850;4.504;2023-04-24T04:37:28;8.90;90.80
10192;DHT22;17580;50.850;4.504;2023-04-24T04:39:55;8.90;90.50
10192;DHT22;17580;50.850;4.504;2023-04-24T04:42:23;8.80;90.30
10192;DHT22;17580;50.850;4.504;2023-04-24T04:44:50;8.90;90.80
10192;DHT22;17580;50.850;4.504;2023-04-24T04:47:17;8.80;90.80
10192;DHT22;17580;50.850;4.504;2023-04-24T04:49:46;8.80;90.80
10192;DHT22;17580;50.850;4.504;2023-04-24T04:52:13;8.80;90.50
10192;DHT22;17580;50.850;4.504;2023-04-24T04:54:42;8.80;90.30
10192;DHT22;17580;50.850;4.504;2023-04-24T04:57:09;8.80;90.40
10192;DHT22;17580;50.850;4.504;2023-04-24T04:59:37;8.70;90.10
10192;DHT22;17580;50.850;4.504;2023-04-24T05:02:04;8.80;90.00
10192;DHT22;17580;50.850;4.504;2023-04-24T05:04:31;8.80;88.60
10192;DHT22;17580;50.850;4.504;2023-04-24T05:06:59;8.70;88.30
10192;DHT22;17580;50.850;4.504;2023-04-24T05:09:26;8.70;89.80
10192;DHT22;17580;50.850;4.504;2023-04-24T05:11:55;8.70;88.00
10192;DHT22;17580;50.850;4.504;2023-04-24T05:14:22;8.70;89.00
10192;DHT22;17580;50.850;4.504;2023-04-24T05:16:48;8.70;90.30
10192;DHT22;17580;50.850;4.504;2023-04-24T05:19:16;8.70;88.30
10192;DHT22;17580;50.850;4.504;2023-04-24T05:21:43;8.70;88.60
10192;DHT22;17580;50.850;4.504;2023-04-24T05:24:12;8.70;88.30
10192;DHT22;17580;50.850;4.504;2023-04-24T05:26:39;8.70;88.60
10192;DHT22;17580;50.850;4.504;2023-04-24T05:29:06;8.70;88.10
10192;DHT22;17580;50.850;4.504;2023-04-24T05:31:33;8.60;87.50
10192;DHT22;17580;50.850;4.504;2023-04-24T05:33:59;8.60;86.90
10192;DHT22;17580;50.850;4.504;2023-04-24T05:36:26;8.60;86.50
10192;DHT22;17580;50.850;4.504;2023-04-24T05:38:53;8.60;86.40
10192;DHT22;17580;50.850;4.504;2023-04-24T05:41:22;8.60;85.50
10192;DHT22;17580;50.850;4.504;2023-04-24T05:43:49;8.60;87.20
10192;DHT22;17580;50.850;4.504;2023-04-24T05:46:16;8.60;86.40
10192;DHT22;17580;50.850;4.504;2023-04-24T05:48:43;8.60;86.40
10192;DHT22;17580;50.850;4.504;2023-04-24T05:51:10;8.50;85.80
10192;DHT22;17580;50.850;4.504;2023-04-24T05:53:37;8.50;86.40
10192;DHT22;17580;50.850;4.504;2023-04-24T05:56:04;8.50;85.70
10192;DHT22;17580;50.850;4.504;2023-04-24T05:58:33;8.60;86.70
10192;DHT22;17580;50.850;4.504;2023-04-24T06:01:00;8.60;85.00
10192;DHT22;17580;50.850;4.504;2023-04-24T06:03:28;8.70;85.60
10192;DHT22;17580;50.850;4.504;2023-04-24T06:05:55;8.70;87.40
10192;DHT22;17580;50.850;4.504;2023-04-24T06:08:21;8.60;84.90
10192;DHT22;17580;50.850;4.504;2023-04-24T06:10:48;8.60;87.10
10192;DHT22;17580;50.850;4.504;2023-04-24T06:13:15;8.60;87.20
10192;DHT22;17580;50.850;4.504;2023-04-24T06:15:44;8.60;88.10
10192;DHT22;17580;50.850;4.504;2023-04-24T06:18:11;8.60;89.10
10192;DHT22;17580;50.850;4.504;2023-04-24T06:20:38;8.60;87.50
10192;DHT22;17580;50.850;4.504;2023-04-24T06:23:05;8.60;87.20
10192;DHT22;17580;50.850;4.504;2023-04-24T06:25:32;8.60;87.70
10192;DHT22;17580;50.850;4.504;2023-04-24T06:27:59;8.60;88.00
10192;DHT22;17580;50.850;4.504;2023-04-24T06:30:27;8.60;87.90
10192;DHT22;17580;50.850;4.504;2023-04-24T06:32:56;8.70;88.80
10192;DHT22;17580;50.850;4.504;2023-04-24T06:35:23;8.60;86.80
10192;DHT22;17580;50.850;4.504;2023-04-24T06:37:50;8.60;88.60
10192;DHT22;17580;50.850;4.504;2023-04-24T06:40:17;8.60;88.10
10192;DHT22;17580;50.850;4.504;2023-04-24T06:42:45;8.60;87.50
10192;DHT22;17580;50.850;4.504;2023-04-24T06:45:12;8.70;88.20
10192;DHT22;17580;50.850;4.504;2023-04-24T06:47:39;8.70;87.70
10192;DHT22;17580;50.850;4.504;2023-04-24T06:50:08;8.70;87.30
10192;DHT22;17580;50.850;4.504;2023-04-24T06:52:35;8.70;86.50
10192;DHT22;17580;50.850;4.504;2023-04-24T06:55:02;8.60;88.00
10192;DHT22;17580;50.850;4.504;2023-04-24T06:57:29;8.70;87.70
10192;DHT22;17580;50.850;4.504;2023-04-24T06:59:56;8.70;87.30
10192;DHT22;17580;50.850;4.504;2023-04-24T07:02:24;8.70;86.70
10192;DHT22;17580;50.850;4.504;2023-04-24T07:04:51;8.80;87.10
10192;DHT22;17580;50.850;4.504;2023-04-24T07:07:19;8.90;87.10
10192;DHT22;17580;50.850;4.504;2023-04-24T07:09:47;9.00;86.60
10192;DHT22;17580;50.850;4.504;2023-04-24T07:12:14;9.00;86.50
10192;DHT22;17580;50.850;4.504;2023-04-24T07:14:42;9.00;86.50
10192;DHT22;17580;50.850;4.504;2023-04-24T07:17:09;8.90;86.80
10192;DHT22;17580;50.850;4.504;2023-04-24T07:19:38;8.90;88.30
10192;DHT22;17580;50.850;4.504;2023-04-24T07:22:05;8.90;86.10
10192;DHT22;17580;50.850;4.504;2023-04-24T07:24:34;8.90;85.00
10192;DHT22;17580;50.850;4.504;2023-04-24T07:27:01;8.90;85.90
10192;DHT22;17580;50.850;4.504;2023-04-24T07:29:27;9.00;85.40
10192;DHT22;17580;50.850;4.504;2023-04-24T07:31:55;9.00;84.30
10192;DHT22;17580;50.850;4.504;2023-04-24T07:34:22;9.30;84.10
10192;DHT22;17580;50.850;4.504;2023-04-24T07:36:49;9.40;83.50
10192;DHT22;17580;50.850;4.504;2023-04-24T07:39:16;9.40;83.10
10192;DHT22;17580;50.850;4.504;2023-04-24T07:41:44;9.40;82.40
10192;DHT22;17580;50.850;4.504;2023-04-24T07:44:11;9.50;80.40
10192;DHT22;17580;50.850;4.504;2023-04-24T07:46:38;9.50;81.20
10192;DHT22;17580;50.850;4.504;2023-04-24T07:49:05;9.50;78.40
10192;DHT22;17580;50.850;4.504;2023-04-24T07:51:32;9.60;77.80
10192;DHT22;17580;50.850;4.504;2023-04-24T07:54:03;9.80;77.30
10192;DHT22;17580;50.850;4.504;2023-04-24T07:56:31;10.10;74.00
10192;DHT22;17580;50.850;4.504;2023-04-24T07:59:00;10.20;74.50
10192;DHT22;17580;50.850;4.504;2023-04-24T08:01:27;10.00;73.30
10192;DHT22;17580;50.850;4.504;2023-04-24T08:03:54;9.90;75.30
10192;DHT22;17580;50.850;4.504;2023-04-24T08:06:22;9.80;76.00
10192;DHT22;17580;50.850;4.504;2023-04-24T08:08:49;9.80;76.90
10192;DHT22;17580;50.850;4.504;2023-04-24T08:11:17;9.70;76.70
10192;DHT22;17580;50.850;4.504;2023-04-24T08:13:44;10.10;75.40
10192;DHT22;17580;50.850;4.504;2023-04-24T08:16:12;10.30;75.30
10192;DHT22;17580;50.850;4.504;2023-04-24T08:18:40;10.50;75.90
10192;DHT22;17580;50.850;4.504;2023-04-24T08:21:07;10.20;73.10
10192;DHT22;17580;50.850;4.504;2023-04-24T08:23:34;10.10;73.60
10192;DHT22;17580;50.850;4.504;2023-04-24T08:26:00;10.10;74.90
10192;DHT22;17580;50.850;4.504;2023-04-24T08:28:28;10.20;75.40
10192;DHT22;17580;50.850;4.504;2023-04-24T08:30:55;10.40;71.80
10192;DHT22;17580;50.850;4.504;2023-04-24T08:33:24;10.50;71.50
10192;DHT22;17580;50.850;4.504;2023-04-24T08:35:51;10.60;71.70
10192;DHT22;17580;50.850;4.504;2023-04-24T08:38:18;11.00;68.20
10192;DHT22;17580;50.850;4.504;2023-04-24T08:40:44;11.20;68.70
10192;DHT22;17580;50.850;4.504;2023-04-24T08:43:15;11.70;66.00
10192;DHT22;17580;50.850;4.504;2023-04-24T08:45:43;12.20;63.30
10192;DHT22;17580;50.850;4.504;2023-04-24T08:48:10;12.90;63.40
10192;DHT22;17580;50.850;4.504;2023-04-24T08:50:38;12.70;61.30
10192;DHT22;17580;50.850;4.504;2023-04-24T08:53:08;12.20;60.20
10192;DHT22;17580;50.850;4.504;2023-04-24T08:55:36;11.80;60.40
10192;DHT22;17580;50.850;4.504;2023-04-24T08:58:04;11.80;59.30
10192;DHT22;17580;50.850;4.504;2023-04-24T09:00:31;12.00;60.70
10192;DHT22;17580;50.850;4.504;2023-04-24T09:03:00;12.40;58.90
10192;DHT22;17580;50.850;4.504;2023-04-24T09:05:28;12.70;57.80
10192;DHT22;17580;50.850;4.504;2023-04-24T09:07:57;13.40;56.00
10192;DHT22;17580;50.850;4.504;2023-04-24T09:10:25;14.40;51.60
10192;DHT22;17580;50.850;4.504;2023-04-24T09:12:54;14.00;50.10
10192;DHT22;17580;50.850;4.504;2023-04-24T09:15:22;13.30;50.90
10192;DHT22;17580;50.850;4.504;2023-04-24T09:17:49;13.50;51.30
10192;DHT22;17580;50.850;4.504;2023-04-24T09:20:17;13.60;50.30
10192;DHT22;17580;50.850;4.504;2023-04-24T09:22:45;13.90;47.80
10192;DHT22;17580;50.850;4.504;2023-04-24T09:25:13;14.70;49.10
10192;DHT22;17580;50.850;4.504;2023-04-24T09:27:44;14.00;47.00
10192;DHT22;17580;50.850;4.504;2023-04-24T09:30:12;13.40;45.70
10192;DHT22;17580;50.850;4.504;2023-04-24T09:32:39;13.50;47.20
10192;DHT22;17580;50.850;4.504;2023-04-24T09:35:09;14.30;47.90
10192;DHT22;17580;50.850;4.504;2023-04-24T09:37:38;15.20;46.60
10192;DHT22;17580;50.850;4.504;2023-04-24T09:40:16;14.10;44.00
10192;DHT22;17580;50.850;4.504;2023-04-24T09:42:44;13.20;45.50
10192;DHT22;17580;50.850;4.504;2023-04-24T09:45:12;12.60;44.50
10192;DHT22;17580;50.850;4.504;2023-04-24T09:47:39;12.40;47.00
10192;DHT22;17580;50.850;4.504;2023-04-24T09:50:11;12.30;46.60
10192;DHT22;17580;50.850;4.504;2023-04-24T09:52:43;12.50;48.10
10192;DHT22;17580;50.850;4.504;2023-04-24T09:55:19;12.60;47.20
10192;DHT22;17580;50.850;4.504;2023-04-24T09:57:48;12.80;45.40
10192;DHT22;17580;50.850;4.504;2023-04-24T10:00:18;13.40;44.00
10192;DHT22;17580;50.850;4.504;2023-04-24T10:02:50;13.80;42.40
10192;DHT22;17580;50.850;4.504;2023-04-24T10:05:17;13.50;41.90
10192;DHT22;17580;50.850;4.504;2023-04-24T10:07:45;13.10;43.90
10192;DHT22;17580;50.850;4.504;2023-04-24T10:10:12;12.90;40.30
10192;DHT22;17580;50.850;4.504;2023-04-24T10:12:40;12.60;42.90
10192;DHT22;17580;50.850;4.504;2023-04-24T10:15:10;13.90;44.30
10192;DHT22;17580;50.850;4.504;2023-04-24T10:17:39;13.50;37.40
10192;DHT22;17580;50.850;4.504;2023-04-24T10:20:07;13.30;39.50
10192;DHT22;17580;50.850;4.504;2023-04-24T10:22:36;13.30;41.10
10192;DHT22;17580;50.850;4.504;2023-04-24T10:25:04;13.90;38.90
10192;DHT22;17580;50.850;4.504;2023-04-24T10:27:32;15.50;37.90
10192;DHT22;17580;50.850;4.504;2023-04-24T10:30:01;15.20;38.60
10192;DHT22;17580;50.850;4.504;2023-04-24T10:32:29;14.60;36.50
10192;DHT22;17580;50.850;4.504;2023-04-24T10:34:55;13.90;39.10
10192;DHT22;17580;50.850;4.504;2023-04-24T10:37:23;13.10;37.40
10192;DHT22;17580;50.850;4.504;2023-04-24T10:39:51;12.70;39.30
10192;DHT22;17580;50.850;4.504;2023-04-24T10:42:20;12.60;39.00
10192;DHT22;17580;50.850;4.504;2023-04-24T10:44:48;13.30;40.90
10192;DHT22;17580;50.850;4.504;2023-04-24T10:47:16;15.30;37.90
10192;DHT22;17580;50.850;4.504;2023-04-24T10:49:43;16.00;33.70
10192;DHT22;17580;50.850;4.504;2023-04-24T10:52:11;15.80;32.40
10192;DHT22;17580;50.850;4.504;2023-04-24T10:54:44;15.70;31.60
10192;DHT22;17580;50.850;4.504;2023-04-24T10:57:27;15.80;34.80
10192;DHT22;17580;50.850;4.504;2023-04-24T11:00:19;15.80;31.80
10192;DHT22;17580;50.850;4.504;2023-04-24T11:02:48;15.30;33.70
10192;DHT22;17580;50.850;4.504;2023-04-24T11:05:16;15.00;33.90
10192;DHT22;17580;50.850;4.504;2023-04-24T11:08:10;14.40;33.40
10192;DHT22;17580;50.850;4.504;2023-04-24T11:10:39;14.00;36.10
10192;DHT22;17580;50.850;4.504;2023-04-24T11:13:07;13.60;35.90
10192;DHT22;17580;50.850;4.504;2023-04-24T11:15:34;13.50;37.50
10192;DHT22;17580;50.850;4.504;2023-04-24T11:18:03;13.20;34.20
10192;DHT22;17580;50.850;4.504;2023-04-24T11:20:30;12.90;36.20
10192;DHT22;17580;50.850;4.504;2023-04-24T11:23:03;12.90;34.70
10192;DHT22;17580;50.850;4.504;2023-04-24T11:25:32;12.80;34.80
10192;DHT22;17580;50.850;4.504;2023-04-24T11:28:14;12.60;36.40
10192;DHT22;17580;50.850;4.504;2023-04-24T11:30:42;12.60;37.60
10192;DHT22;17580;50.850;4.504;2023-04-24T11:33:10;12.80;37.60
10192;DHT22;17580;50.850;4.504;2023-04-24T11:35:40;13.00;38.00
10192;DHT22;17580;50.850;4.504;2023-04-24T11:38:07;13.50;36.80
10192;DHT22;17580;50.850;4.504;2023-04-24T11:40:34;13.90;38.50
10192;DHT22;17580;50.850;4.504;2023-04-24T11:43:01;14.50;37.30
10192;DHT22;17580;50.850;4.504;2023-04-24T11:45:31;14.40;35.00
10192;DHT22;17580;50.850;4.504;2023-04-24T11:47:58;14.00;35.00
10192;DHT22;17580;50.850;4.504;2023-04-24T11:50:27;13.80;32.20
10192;DHT22;17580;50.850;4.504;2023-04-24T11:52:57;13.90;32.40
10192;DHT22;17580;50.850;4.504;2023-04-24T11:55:27;14.20;32.90
10192;DHT22;17580;50.850;4.504;2023-04-24T11:57:56;15.20;33.60
10192;DHT22;17580;50.850;4.504;2023-04-24T12:00:24;15.60;30.60
10192;DHT22;17580;50.850;4.504;2023-04-24T12:03:02;15.10;30.30
10192;DHT22;17580;50.850;4.504;2023-04-24T12:05:31;15.00;31.30
10192;DHT22;17580;50.850;4.504;2023-04-24T12:07:59;14.80;31.20
10192;DHT22;17580;50.850;4.504;2023-04-24T12:10:27;15.40;30.90
10192;DHT22;17580;50.850;4.504;2023-04-24T12:12:56;15.70;30.00
10192;DHT22;17580;50.850;4.504;2023-04-24T12:15:23;15.40;29.90
10192;DHT22;17580;50.850;4.504;2023-04-24T12:17:51;15.10;32.20
10192;DHT22;17580;50.850;4.504;2023-04-24T12:20:24;14.60;29.60
10192;DHT22;17580;50.850;4.504;2023-04-24T12:22:54;15.50;31.80
10192;DHT22;17580;50.850;4.504;2023-04-24T12:25:23;16.00;29.40
10192;DHT22;17580;50.850;4.504;2023-04-24T12:27:53;16.90;28.30
10192;DHT22;17580;50.850;4.504;2023-04-24T12:30:25;17.50;28.60
10192;DHT22;17580;50.850;4.504;2023-04-24T12:32:53;17.20;26.10
10192;DHT22;17580;50.850;4.504;2023-04-24T12:35:22;17.40;27.30
10192;DHT22;17580;50.850;4.504;2023-04-24T12:37:49;17.50;24.50
10192;DHT22;17580;50.850;4.504;2023-04-24T12:40:20;16.60;25.30
10192;DHT22;17580;50.850;4.504;2023-04-24T12:42:49;16.70;25.00
10192;DHT22;17580;50.850;4.504;2023-04-24T12:45:17;16.40;23.90
10192;DHT22;17580;50.850;4.504;2023-04-24T12:47:45;15.90;24.80
10192;DHT22;17580;50.850;4.504;2023-04-24T12:50:14;16.10;27.00
10192;DHT22;17580;50.850;4.504;2023-04-24T12:52:41;16.00;25.20
10192;DHT22;17580;50.850;4.504;2023-04-24T12:55:09;16.50;25.50
10192;DHT22;17580;50.850;4.504;2023-04-24T12:57:39;17.00;24.00
10192;DHT22;17580;50.850;4.504;2023-04-24T13:00:08;17.50;26.70
10192;DHT22;17580;50.850;4.504;2023-04-24T13:02:35;18.10;25.90
10192;DHT22;17580;50.850;4.504;2023-04-24T13:05:02;18.20;20.70
10192;DHT22;17580;50.850;4.504;2023-04-24T13:07:29;18.40;22.90
10192;DHT22;17580;50.850;4.504;2023-04-24T13:09:56;18.20;22.10
10192;DHT22;17580;50.850;4.504;2023-04-24T13:12:23;18.50;25.00
10192;DHT22;17580;50.850;4.504;2023-04-24T13:14:52;18.00;22.60
10192;DHT22;17580;50.850;4.504;2023-04-24T13:17:20;17.70;21.70
10192;DHT22;17580;50.850;4.504;2023-04-24T13:19:49;17.60;22.30
10192;DHT22;17580;50.850;4.504;2023-04-24T13:22:16;16.60;21.70
10192;DHT22;17580;50.850;4.504;2023-04-24T13:24:44;16.00;22.60
10192;DHT22;17580;50.850;4.504;2023-04-24T13:27:11;15.70;23.60
10192;DHT22;17580;50.850;4.504;2023-04-24T13:29:38;15.50;24.50
10192;DHT22;17580;50.850;4.504;2023-04-24T13:32:07;15.30;24.00
10192;DHT22;17580;50.850;4.504;2023-04-24T13:34:34;15.00;25.40
10192;DHT22;17580;50.850;4.504;2023-04-24T13:37:02;14.90;26.70
10192;DHT22;17580;50.850;4.504;2023-04-24T13:39:29;14.60;24.80
10192;DHT22;17580;50.850;4.504;2023-04-24T13:41:57;14.50;25.70
10192;DHT22;17580;50.850;4.504;2023-04-24T13:44:24;14.60;25.00
10192;DHT22;17580;50.850;4.504;2023-04-24T13:46:54;14.70;24.30
10192;DHT22;17580;50.850;4.504;2023-04-24T13:49:24;14.70;26.10
10192;DHT22;17580;50.850;4.504;2023-04-24T13:51:52;15.00;25.10
10192;DHT22;17580;50.850;4.504;2023-04-24T13:54:19;15.00;24.60
10192;DHT22;17580;50.850;4.504;2023-04-24T13:56:46;15.40;25.80
10192;DHT22;17580;50.850;4.504;2023-04-24T13:59:13;15.60;25.20
10192;DHT22;17580;50.850;4.504;2023-04-24T14:01:40;15.50;24.00
10192;DHT22;17580;50.850;4.504;2023-04-24T14:04:07;15.00;23.10
10192;DHT22;17580;50.850;4.504;2023-04-24T14:06:36;14.80;23.90
10192;DHT22;17580;50.850;4.504;2023-04-24T14:09:03;14.90;25.70
10192;DHT22;17580;50.850;4.504;2023-04-24T14:11:29;14.90;26.20
10192;DHT22;17580;50.850;4.504;2023-04-24T14:13:57;14.90;25.70
10192;DHT22;17580;50.850;4.504;2023-04-24T14:16:24;14.90;23.00
10192;DHT22;17580;50.850;4.504;2023-04-24T14:18:51;14.70;24.30
10192;DHT22;17580;50.850;4.504;2023-04-24T14:21:18;14.50;22.90
10192;DHT22;17580;50.850;4.504;2023-04-24T14:23:46;14.40;25.10
10192;DHT22;17580;50.850;4.504;2023-04-24T14:26:13;14.10;24.10
10192;DHT22;17580;50.850;4.504;2023-04-24T14:28:40;13.90;25.60
10192;DHT22;17580;50.850;4.504;2023-04-24T14:31:07;13.90;26.30
10192;DHT22;17580;50.850;4.504;2023-04-24T14:33:35;13.90;25.20
10192;DHT22;17580;50.850;4.504;2023-04-24T14:36:02;13.80;25.10
10192;DHT22;17580;50.850;4.504;2023-04-24T14:38:31;13.80;27.00
10192;DHT22;17580;50.850;4.504;2023-04-24T14:40:59;13.70;25.10
10192;DHT22;17580;50.850;4.504;2023-04-24T14:43:26;13.60;26.00
10192;DHT22;17580;50.850;4.504;2023-04-24T14:45:53;13.60;25.90
10192;DHT22;17580;50.850;4.504;2023-04-24T14:48:20;13.50;26.90
10192;DHT22;17580;50.850;4.504;2023-04-24T14:50:47;13.50;26.80
10192;DHT22;17580;50.850;4.504;2023-04-24T14:53:14;13.40;26.70
10192;DHT22;17580;50.850;4.504;2023-04-24T14:55:42;13.30;26.70
10192;DHT22;17580;50.850;4.504;2023-04-24T14:58:10;13.40;26.70
10192;DHT22;17580;50.850;4.504;2023-04-24T15:00:37;13.40;29.60
10192;DHT22;17580;50.850;4.504;2023-04-24T15:03:04;13.40;28.50
10192;DHT22;17580;50.850;4.504;2023-04-24T15:05:31;13.20;26.30
10192;DHT22;17580;50.850;4.504;2023-04-24T15:07:58;13.00;26.30
10192;DHT22;17580;50.850;4.504;2023-04-24T15:10:25;13.20;27.00
10192;DHT22;17580;50.850;4.504;2023-04-24T15:12:52;13.30;26.30
10192;DHT22;17580;50.850;4.504;2023-04-24T15:15:21;13.50;25.90
10192;DHT22;17580;50.850;4.504;2023-04-24T15:17:48;13.50;26.50
10192;DHT22;17580;50.850;4.504;2023-04-24T15:20:15;13.50;23.90
10192;DHT22;17580;50.850;4.504;2023-04-24T15:22:42;13.60;26.00
10192;DHT22;17580;50.850;4.504;2023-04-24T15:25:09;13.60;25.50
10192;DHT22;17580;50.850;4.504;2023-04-24T15:27:41;13.70;26.70
10192;DHT22;17580;50.850;4.504;2023-04-24T15:30:09;13.70;26.20
10192;DHT22;17580;50.850;4.504;2023-04-24T15:32:38;13.70;25.00
10192;DHT22;17580;50.850;4.504;2023-04-24T15:35:06;13.60;25.70
10192;DHT22;17580;50.850;4.504;2023-04-24T15:37:33;13.60;26.10
10192;DHT22;17580;50.850;4.504;2023-04-24T15:40:00;13.60;26.50
10192;DHT22;17580;50.850;4.504;2023-04-24T15:42:30;13.50;24.20